sensor_id;sensor_type;location;lat;lon;timestamp;pressure;altitude;pressure_sealevel;temperature;humidity
4617;BME280;2321;42.704;23.384;2023-04-16T00:02:11;94938.69;;;12.92;nan
4617;BME280;2321;42.704;23.384;2023-04-16T00:04:38;94934.41;;;12.91;nan
4617;BME280;2321;42.704;23.384;2023-04-16T00:07:05;94927.63;;;12.88;nan
4617;BME280;2321;42.704;23.384;2023-04-16T00:09:32;94928.72;;;12.80;nan
4617;BME280;2321;42.704;23.384;2023-04-16T00:12:00;94921.16;;;12.77;nan
4617;BME280;2321;42.704;23.384;2023-04-16T00:14:28;94925.66;;;12.77;nan
4617;BME280;2321;42.704;23.384;2023-04-16T00:16:55;94927.94;;;12.73;nan
4617;BME280;2321;42.704;23.384;2023-04-16T00:19:22;94925.13;;;12.68;nan
4617;BME280;2321;42.704;23.384;2023-04-16T00:21:48;94927.41;;;12.64;nan
4617;BME280;2321;42.704;23.384;2023-04-16T00:24:15;94932.34;;;12.60;nan
4617;BME280;2321;42.704;23.384;2023-04-16T00:26:42;94926.03;;;12.55;nan
4617;BME280;2321;42.704;23.384;2023-04-16T00:29:12;94929.38;;;12.50;nan
4617;BME280;2321;42.704;23.384;2023-04-16T00:31:38;94928.56;;;12.42;nan
4617;BME280;2321;42.704;23.384;2023-04-16T00:34:05;94938.50;;;12.35;nan
4617;BME280;2321;42.704;23.384;2023-04-16T00:36:32;94932.75;;;12.31;nan
4617;BME280;2321;42.704;23.384;2023-04-16T00:38:59;94930.56;;;12.22;nan
4617;BME280;2321;42.704;23.384;2023-04-16T00:41:26;94927.28;;;12.19;nan
4617;BME280;2321;42.704;23.384;2023-04-16T00:43:53;94921.56;;;12.16;nan
4617;BME280;2321;42.704;23.384;2023-04-16T00:46:22;94916.63;;;12.13;nan
4617;BME280;2321;42.704;23.384;2023-04-16T00:48:50;94911.13;;;12.07;nan
4617;BME280;2321;42.704;23.384;2023-04-16T00:51:18;94923.88;;;11.98;nan
4617;BME280;2321;42.704;23.384;2023-04-16T00:53:46;94921.41;;;11.97;nan
4617;BME280;2321;42.704;23.384;2023-04-16T00:56:13;94918.34;;;11.93;nan
4617;BME280;2321;42.704;23.384;2023-04-16T00:58:40;94918.16;;;11.88;nan
4617;BME280;2321;42.704;23.384;2023-04-16T01:01:07;94918.03;;;11.69;nan
4617;BME280;2321;42.704;23.384;2023-04-16T01:03:39;94918.91;;;11.56;nan
4617;BME280;2321;42.704;23.384;2023-04-16T01:06:06;94920.19;;;11.47;nan
4617;BME280;2321;42.704;23.384;2023-04-16T01:08:33;94911.78;;;11.50;nan
4617;BME280;2321;42.704;23.384;2023-04-16T01:11:00;94921.81;;;11.41;nan
4617;BME280;2321;42.704;23.384;2023-04-16T01:13:28;94915.69;;;11.33;nan
4617;BME280;2321;42.704;23.384;2023-04-16T01:15:55;94917.75;;;11.31;nan
4617;BME280;2321;42.704;23.384;2023-04-16T01:18:22;94921.03;;;11.20;nan
4617;BME280;2321;42.704;23.384;2023-04-16T01:20:51;94924.56;;;11.07;nan
4617;BME280;2321;42.704;23.384;2023-04-16T01:23:18;94914.53;;;10.95;nan
4617;BME280;2321;42.704;23.384;2023-04-16T01:25:45;94902.47;;;10.79;nan
4617;BME280;2321;42.704;23.384;2023-04-16T01:28:12;94923.97;;;10.91;nan
4617;BME280;2321;42.704;23.384;2023-04-16T01:30:39;94918.00;;;10.89;nan
4617;BME280;2321;42.704;23.384;2023-04-16T01:33:06;94914.13;;;10.85;nan
4617;BME280;2321;42.704;23.384;2023-04-16T01:35:33;94913.72;;;10.88;nan
4617;BME280;2321;42.704;23.384;2023-04-16T01:38:01;94912.28;;;10.85;nan
4617;BME280;2321;42.704;23.384;2023-04-16T01:40:29;94905.94;;;10.86;nan
4617;BME280;2321;42.704;23.384;2023-04-16T01:42:56;94913.31;;;10.91;nan
4617;BME280;2321;42.704;23.384;2023-04-16T01:45:23;94912.09;;;10.94;nan
4617;BME280;2321;42.704;23.384;2023-04-16T01:47:50;94912.91;;;10.94;nan
4617;BME280;2321;42.704;23.384;2023-04-16T01:50:18;94907.34;;;10.96;nan
4617;BME280;2321;42.704;23.384;2023-04-16T01:52:45;94907.34;;;10.96;nan
4617;BME280;2321;42.704;23.384;2023-04-16T01:55:13;94912.50;;;10.91;nan
4617;BME280;2321;42.704;23.384;2023-04-16T01:57:40;94908.00;;;10.91;nan
4617;BME280;2321;42.704;23.384;2023-04-16T02:00:07;94908.59;;;10.86;nan
4617;BME280;2321;42.704;23.384;2023-04-16T02:02:35;94908.59;;;10.86;nan
4617;BME280;2321;42.704;23.384;2023-04-16T02:05:02;94910.44;;;10.93;nan
4617;BME280;2321;42.704;23.384;2023-04-16T02:07:29;94902.25;;;10.87;nan
4617;BME280;2321;42.704;23.384;2023-04-16T02:09:57;94906.16;;;10.92;nan
4617;BME280;2321;42.704;23.384;2023-04-16T02:12:25;94908.19;;;10.89;nan
4617;BME280;2321;42.704;23.384;2023-04-16T02:14:52;94896.69;;;10.89;nan
4617;BME280;2321;42.704;23.384;2023-04-16T02:17:19;94892.00;;;10.84;nan
4617;BME280;2321;42.704;23.384;2023-04-16T02:19:45;94899.78;;;10.86;nan
4617;BME280;2321;42.704;23.384;2023-04-16T02:22:12;94893.25;;;10.82;nan
4617;BME280;2321;42.704;23.384;2023-04-16T02:24:39;94897.75;;;10.81;nan
4617;BME280;2321;42.704;23.384;2023-04-16T02:27:06;94901.44;;;10.80;nan
4617;BME280;2321;42.704;23.384;2023-04-16T02:29:34;94896.50;;;10.77;nan
4617;BME280;2321;42.704;23.384;2023-04-16T02:32:01;94894.06;;;10.75;nan
4617;BME280;2321;42.704;23.384;2023-04-16T02:34:28;94894.25;;;10.74;nan
4617;BME280;2321;42.704;23.384;2023-04-16T02:36:55;94898.56;;;10.75;nan
4617;BME280;2321;42.704;23.384;2023-04-16T02:39:22;94890.81;;;10.73;nan
4617;BME280;2321;42.704;23.384;2023-04-16T02:41:49;94886.91;;;10.76;nan
4617;BME280;2321;42.704;23.384;2023-04-16T02:44:16;94889.56;;;10.69;nan
4617;BME280;2321;42.704;23.384;2023-04-16T02:46:45;94884.00;;;10.71;nan
4617;BME280;2321;42.704;23.384;2023-04-16T02:49:11;94885.66;;;10.65;nan
4617;BME280;2321;42.704;23.384;2023-04-16T02:51:38;94883.63;;;10.67;nan
4617;BME280;2321;42.704;23.384;2023-04-16T02:54:05;94876.44;;;10.67;nan
4617;BME280;2321;42.704;23.384;2023-04-16T02:56:32;94880.75;;;10.68;nan
4617;BME280;2321;42.704;23.384;2023-04-16T02:58:59;94875.22;;;10.70;nan
4617;BME280;2321;42.704;23.384;2023-04-16T03:01:26;94881.75;;;10.67;nan
4617;BME280;2321;42.704;23.384;2023-04-16T03:03:55;94879.09;;;10.67;nan
4617;BME280;2321;42.704;23.384;2023-04-16T03:06:21;94879.09;;;10.67;nan
4617;BME280;2321;42.704;23.384;2023-04-16T03:08:48;94879.31;;;10.66;nan
4617;BME280;2321;42.704;23.384;2023-04-16T03:11:15;94881.97;;;10.66;nan
4617;BME280;2321;42.704;23.384;2023-04-16T03:13:42;94880.16;;;10.66;nan
4617;BME280;2321;42.704;23.384;2023-04-16T03:16:09;94880.56;;;10.63;nan
4617;BME280;2321;42.704;23.384;2023-04-16T03:18:36;94890.38;;;10.63;nan
4617;BME280;2321;42.704;23.384;2023-04-16T03:21:04;94896.13;;;10.60;nan
4617;BME280;2321;42.704;23.384;2023-04-16T03:23:31;94892.22;;;10.62;nan
4617;BME280;2321;42.704;23.384;2023-04-16T03:25:58;94897.75;;;10.54;nan
4617;BME280;2321;42.704;23.384;2023-04-16T03:28:25;94899.56;;;10.46;nan
4617;BME280;2321;42.704;23.384;2023-04-16T03:30:52;94892.44;;;10.54;nan
4617;BME280;2321;42.704;23.384;2023-04-16T03:33:19;94890.59;;;10.54;nan
4617;BME280;2321;42.704;23.384;2023-04-16T03:35:54;94887.72;;;10.56;nan
4617;BME280;2321;42.704;23.384;2023-04-16T03:38:22;94893.03;;;10.56;nan
4617;BME280;2321;42.704;23.384;2023-04-16T03:40:50;94898.78;;;10.53;nan
4617;BME280;2321;42.704;23.384;2023-04-16T03:43:17;94903.91;;;10.54;nan
4617;BME280;2321;42.704;23.384;2023-04-16T03:45:43;94877.63;;;10.31;nan
4617;BME280;2321;42.704;23.384;2023-04-16T03:48:10;94899.94;;;10.37;nan
4617;BME280;2321;42.704;23.384;2023-04-16T03:50:37;94899.13;;;10.29;nan
4617;BME280;2321;42.704;23.384;2023-04-16T03:53:04;94903.44;;;10.23;nan
4617;BME280;2321;42.704;23.384;2023-04-16T03:55:33;94902.59;;;10.16;nan
4617;BME280;2321;42.704;23.384;2023-04-16T03:58:00;94900.72;;;10.10;nan
4617;BME280;2321;42.704;23.384;2023-04-16T04:00:29;94906.84;;;10.03;nan
4617;BME280;2321;42.704;23.384;2023-04-16T04:02:56;94917.69;;;9.95;nan
4617;BME280;2321;42.704;23.384;2023-04-16T04:05:23;94909.47;;;9.83;nan
4617;BME280;2321;42.704;23.384;2023-04-16T04:07:49;94917.41;;;9.76;nan
4617;BME280;2321;42.704;23.384;2023-04-16T04:10:16;94912.28;;;9.68;nan
4617;BME280;2321;42.704;23.384;2023-04-16T04:12:45;94917.78;;;9.66;nan
4617;BME280;2321;42.704;23.384;2023-04-16T04:15:12;94918.81;;;9.65;nan
4617;BME280;2321;42.704;23.384;2023-04-16T04:17:38;94922.25;;;9.59;nan
4617;BME280;2321;42.704;23.384;2023-04-16T04:20:06;94928.00;;;9.63;nan
4617;BME280;2321;42.704;23.384;2023-04-16T04:22:33;94929.00;;;9.62;nan
4617;BME280;2321;42.704;23.384;2023-04-16T04:25:00;94927.59;;;9.66;nan
4617;BME280;2321;42.704;23.384;2023-04-16T04:27:27;94933.31;;;9.63;nan
4617;BME280;2321;42.704;23.384;2023-04-16T04:29:55;94924.97;;;9.73;nan
4617;BME280;2321;42.704;23.384;2023-04-16T04:32:22;94932.09;;;9.72;nan
4617;BME280;2321;42.704;23.384;2023-04-16T04:34:49;94929.88;;;9.69;nan
4617;BME280;2321;42.704;23.384;2023-04-16T04:37:16;94944.81;;;9.77;nan
4617;BME280;2321;42.704;23.384;2023-04-16T04:39:43;94943.19;;;9.83;nan
4617;BME280;2321;42.704;23.384;2023-04-16T04:42:10;94945.47;;;9.86;nan
4617;BME280;2321;42.704;23.384;2023-04-16T04:44:36;94950.38;;;9.89;nan
4617;BME280;2321;42.704;23.384;2023-04-16T04:47:05;94954.69;;;9.90;nan
4617;BME280;2321;42.704;23.384;2023-04-16T04:49:31;94942.22;;;9.97;nan
4617;BME280;2321;42.704;23.384;2023-04-16T04:51:58;94947.78;;;10.02;nan
4617;BME280;2321;42.704;23.384;2023-04-16T04:54:25;94949.00;;;10.07;nan
4617;BME280;2321;42.704;23.384;2023-04-16T04:56:52;94950.03;;;10.12;nan
4617;BME280;2321;42.704;23.384;2023-04-16T04:59:19;94949.22;;;10.12;nan
4617;BME280;2321;42.704;23.384;2023-04-16T05:01:47;94947.81;;;10.16;nan
4617;BME280;2321;42.704;23.384;2023-04-16T05:04:15;94951.09;;;10.11;nan
4617;BME280;2321;42.704;23.384;2023-04-16T05:06:43;94942.25;;;10.04;nan
4617;BME280;2321;42.704;23.384;2023-04-16T05:09:10;94958.03;;;10.12;nan
4617;BME280;2321;42.704;23.384;2023-04-16T05:11:37;94933.44;;;10.03;nan
4617;BME280;2321;42.704;23.384;2023-04-16T05:14:03;94946.78;;;10.10;nan
4617;BME280;2321;42.704;23.384;2023-04-16T05:16:30;94943.03;;;9.91;nan
4617;BME280;2321;42.704;23.384;2023-04-16T05:18:57;94940.78;;;9.95;nan
4617;BME280;2321;42.704;23.384;2023-04-16T05:21:25;94934.69;;;10.01;nan
4617;BME280;2321;42.704;23.384;2023-04-16T05:23:52;94940.00;;;10.01;nan
4617;BME280;2321;42.704;23.384;2023-04-16T05:26:19;94943.88;;;9.98;nan
4617;BME280;2321;42.704;23.384;2023-04-16T05:28:47;94941.81;;;10.00;nan
4617;BME280;2321;42.704;23.384;2023-04-16T05:31:14;94941.03;;;10.07;nan
4617;BME280;2321;42.704;23.384;2023-04-16T05:33:41;94947.00;;;10.09;nan
4617;BME280;2321;42.704;23.384;2023-04-16T05:36:07;94945.38;;;10.15;nan
4617;BME280;2321;42.704;23.384;2023-04-16T05:38:36;94945.38;;;10.15;nan
4617;BME280;2321;42.704;23.384;2023-04-16T05:41:03;94950.28;;;10.18;nan
4617;BME280;2321;42.704;23.384;2023-04-16T05:43:30;94941.50;;;10.24;nan
4617;BME280;2321;42.704;23.384;2023-04-16T05:45:56;94943.13;;;10.32;nan
4617;BME280;2321;42.704;23.384;2023-04-16T05:48:23;94944.38;;;10.36;nan
4617;BME280;2321;42.704;23.384;2023-04-16T05:50:50;94939.88;;;10.43;nan
4617;BME280;2321;42.704;23.384;2023-04-16T05:53:18;94939.88;;;10.43;nan
4617;BME280;2321;42.704;23.384;2023-04-16T05:55:46;94941.72;;;10.43;nan
4617;BME280;2321;42.704;23.384;2023-04-16T05:58:13;94951.78;;;10.48;nan
4617;BME280;2321;42.704;23.384;2023-04-16T06:00:40;94948.34;;;10.54;nan
4617;BME280;2321;42.704;23.384;2023-04-16T06:03:07;94944.22;;;10.58;nan
4617;BME280;2321;42.704;23.384;2023-04-16T06:05:34;94947.72;;;10.65;nan
4617;BME280;2321;42.704;23.384;2023-04-16T06:08:00;94944.84;;;10.74;nan
4617;BME280;2321;42.704;23.384;2023-04-16T06:10:27;94939.53;;;10.81;nan
4617;BME280;2321;42.704;23.384;2023-04-16T06:12:56;94941.97;;;10.89;nan
4617;BME280;2321;42.704;23.384;2023-04-16T06:15:22;94935.84;;;10.95;nan
4617;BME280;2321;42.704;23.384;2023-04-16T06:17:49;94941.16;;;11.09;nan
4617;BME280;2321;42.704;23.384;2023-04-16T06:20:16;94947.09;;;11.18;nan
4617;BME280;2321;42.704;23.384;2023-04-16T06:22:43;94944.19;;;11.26;nan
4617;BME280;2321;42.704;23.384;2023-04-16T06:25:10;94943.78;;;11.36;nan
4617;BME280;2321;42.704;23.384;2023-04-16T06:27:37;94940.69;;;11.39;nan
4617;BME280;2321;42.704;23.384;2023-04-16T06:30:10;94939.47;;;11.42;nan
4617;BME280;2321;42.704;23.384;2023-04-16T06:32:37;94933.47;;;11.53;nan
4617;BME280;2321;42.704;23.384;2023-04-16T06:35:05;94925.47;;;11.53;nan
4617;BME280;2321;42.704;23.384;2023-04-16T06:37:32;94932.84;;;11.65;nan
4617;BME280;2321;42.704;23.384;2023-04-16T06:39:59;94933.44;;;11.74;nan
4617;BME280;2321;42.704;23.384;2023-04-16T06:42:26;94935.03;;;11.75;nan
4617;BME280;2321;42.704;23.384;2023-04-16T06:44:53;94941.59;;;11.86;nan
4617;BME280;2321;42.704;23.384;2023-04-16T06:47:21;94930.66;;;11.94;nan
4617;BME280;2321;42.704;23.384;2023-04-16T06:49:48;94935.94;;;12.08;nan
4617;BME280;2321;42.704;23.384;2023-04-16T06:52:15;94935.03;;;12.28;nan
4617;BME280;2321;42.704;23.384;2023-04-16T06:54:42;94935.13;;;12.47;nan
4617;BME280;2321;42.704;23.384;2023-04-16T06:57:09;94937.25;;;12.63;nan
4617;BME280;2321;42.704;23.384;2023-04-16T06:59:36;94935.72;;;12.81;nan
4617;BME280;2321;42.704;23.384;2023-04-16T07:02:03;94931.47;;;12.99;nan
4617;BME280;2321;42.704;23.384;2023-04-16T07:04:31;94930.97;;;13.09;nan
4617;BME280;2321;42.704;23.384;2023-04-16T07:06:58;94933.72;;;13.21;nan
4617;BME280;2321;42.704;23.384;2023-04-16T07:09:24;94933.75;;;13.40;nan
4617;BME280;2321;42.704;23.384;2023-04-16T07:11:52;94926.59;;;13.53;nan
4617;BME280;2321;42.704;23.384;2023-04-16T07:14:19;94926.38;;;13.61;nan
4617;BME280;2321;42.704;23.384;2023-04-16T07:16:46;94932.22;;;13.70;nan
4617;BME280;2321;42.704;23.384;2023-04-16T07:19:13;94929.25;;;13.78;nan
4617;BME280;2321;42.704;23.384;2023-04-16T07:21:41;94935.09;;;13.87;nan
4617;BME280;2321;42.704;23.384;2023-04-16T07:24:08;94937.25;;;13.97;nan
4617;BME280;2321;42.704;23.384;2023-04-16T07:26:35;94928.09;;;14.05;nan
4617;BME280;2321;42.704;23.384;2023-04-16T07:29:02;94934.50;;;14.04;nan
4617;BME280;2321;42.704;23.384;2023-04-16T07:31:29;94930.69;;;14.12;nan
4617;BME280;2321;42.704;23.384;2023-04-16T07:33:57;94929.91;;;14.23;nan
4617;BME280;2321;42.704;23.384;2023-04-16T07:36:24;94928.53;;;14.33;nan
4617;BME280;2321;42.704;23.384;2023-04-16T07:38:55;94932.31;;;14.44;nan
4617;BME280;2321;42.704;23.384;2023-04-16T07:41:28;94936.78;;;14.50;nan
4617;BME280;2321;42.704;23.384;2023-04-16T07:43:55;94928.16;;;14.60;nan
4617;BME280;2321;42.704;23.384;2023-04-16T07:46:22;94924.34;;;14.68;nan
4617;BME280;2321;42.704;23.384;2023-04-16T07:48:48;94933.81;;;14.82;nan
4617;BME280;2321;42.704;23.384;2023-04-16T07:51:15;94935.34;;;14.90;nan
4617;BME280;2321;42.704;23.384;2023-04-16T07:53:43;94932.91;;;15.01;nan
4617;BME280;2321;42.704;23.384;2023-04-16T07:56:11;94935.03;;;15.11;nan
4617;BME280;2321;42.704;23.384;2023-04-16T07:58:38;94930.25;;;15.13;nan
4617;BME280;2321;42.704;23.384;2023-04-16T08:01:05;94926.06;;;15.17;nan
4617;BME280;2321;42.704;23.384;2023-04-16T08:03:37;94935.13;;;15.16;nan
4617;BME280;2321;42.704;23.384;2023-04-16T08:06:04;94924.06;;;15.24;nan
4617;BME280;2321;42.704;23.384;2023-04-16T08:08:32;94920.56;;;15.36;nan
4617;BME280;2321;42.704;23.384;2023-04-16T08:11:03;94927.22;;;15.45;nan
4617;BME280;2321;42.704;23.384;2023-04-16T08:13:34;94924.16;;;15.54;nan
4617;BME280;2321;42.704;23.384;2023-04-16T08:16:02;94924.72;;;15.68;nan
4617;BME280;2321;42.704;23.384;2023-04-16T08:18:29;94916.63;;;15.80;nan
4617;BME280;2321;42.704;23.384;2023-04-16T08:20:56;94922.31;;;15.96;nan
4617;BME280;2321;42.704;23.384;2023-04-16T08:23:23;94908.28;;;16.06;nan
4617;BME280;2321;42.704;23.384;2023-04-16T08:25:50;94908.00;;;16.19;nan
4617;BME280;2321;42.704;23.384;2023-04-16T08:28:16;94906.69;;;16.34;nan
4617;BME280;2321;42.704;23.384;2023-04-16T08:30:45;94913.59;;;16.47;nan
4617;BME280;2321;42.704;23.384;2023-04-16T08:33:12;94908.16;;;16.59;nan
4617;BME280;2321;42.704;23.384;2023-04-16T08:35:39;94896.38;;;16.60;nan
4617;BME280;2321;42.704;23.384;2023-04-16T08:38:06;94904.91;;;16.74;nan
4617;BME280;2321;42.704;23.384;2023-04-16T08:40:34;94900.44;;;16.97;nan
4617;BME280;2321;42.704;23.384;2023-04-16T08:43:05;94897.94;;;17.08;nan
4617;BME280;2321;42.704;23.384;2023-04-16T08:45:35;94893.53;;;17.19;nan
4617;BME280;2321;42.704;23.384;2023-04-16T08:48:04;94892.78;;;17.24;nan
4617;BME280;2321;42.704;23.384;2023-04-16T08:50:32;94871.59;;;17.27;nan
4617;BME280;2321;42.704;23.384;2023-04-16T08:53:03;94887.09;;;17.60;nan
4617;BME280;2321;42.704;23.384;2023-04-16T08:55:35;94885.97;;;17.78;nan
4617;BME280;2321;42.704;23.384;2023-04-16T08:58:07;94887.72;;;17.90;nan
4617;BME280;2321;42.704;23.384;2023-04-16T09:00:36;94878.00;;;17.89;nan
4617;BME280;2321;42.704;23.384;2023-04-16T09:03:07;94879.69;;;17.95;nan
4617;BME280;2321;42.704;23.384;2023-04-16T09:05:35;94878.94;;;18.00;nan
4617;BME280;2321;42.704;23.384;2023-04-16T09:08:01;94864.97;;;18.03;nan
4617;BME280;2321;42.704;23.384;2023-04-16T09:10:30;94876.69;;;18.19;nan
4617;BME280;2321;42.704;23.384;2023-04-16T09:12:57;94871.06;;;18.21;nan
4617;BME280;2321;42.704;23.384;2023-04-16T09:15:24;94864.47;;;18.06;nan
4617;BME280;2321;42.704;23.384;2023-04-16T09:17:52;94864.97;;;18.03;nan
4617;BME280;2321;42.704;23.384;2023-04-16T09:20:22;94868.53;;;18.08;nan
4617;BME280;2321;42.704;23.384;2023-04-16T09:22:49;94865.38;;;18.17;nan
4617;BME280;2321;42.704;23.384;2023-04-16T09:25:16;94867.63;;;18.25;nan
4617;BME280;2321;42.704;23.384;2023-04-16T09:27:43;94871.81;;;18.38;nan
4617;BME280;2321;42.704;23.384;2023-04-16T09:30:20;94873.47;;;18.45;nan
4617;BME280;2321;42.704;23.384;2023-04-16T09:32:50;94879.69;;;18.45;nan
4617;BME280;2321;42.704;23.384;2023-04-16T09:35:18;94874.88;;;18.53;nan
4617;BME280;2321;42.704;23.384;2023-04-16T09:37:55;94875.50;;;18.60;nan
4617;BME280;2321;42.704;23.384;2023-04-16T09:40:23;94869.59;;;18.63;nan
4617;BME280;2321;42.704;23.384;2023-04-16T09:42:51;94867.50;;;18.70;nan
4617;BME280;2321;42.704;23.384;2023-04-16T09:45:22;94864.84;;;18.76;nan
4617;BME280;2321;42.704;23.384;2023-04-16T09:47:49;94848.66;;;18.76;nan
4617;BME280;2321;42.704;23.384;2023-04-16T09:50:17;94857.81;;;18.75;nan
4617;BME280;2321;42.704;23.384;2023-04-16T09:52:48;94856.97;;;18.69;nan
4617;BME280;2321;42.704;23.384;2023-04-16T09:55:21;94852.16;;;18.43;nan
4617;BME280;2321;42.704;23.384;2023-04-16T09:57:57;94855.84;;;18.32;nan
4617;BME280;2321;42.704;23.384;2023-04-16T10:00:24;94844.03;;;18.38;nan
4617;BME280;2321;42.704;23.384;2023-04-16T10:03:02;94847.13;;;18.52;nan
4617;BME280;2321;42.704;23.384;2023-04-16T10:05:29;94844.53;;;18.68;nan
4617;BME280;2321;42.704;23.384;2023-04-16T10:07:59;94846.28;;;18.84;nan
4617;BME280;2321;42.704;23.384;2023-04-16T10:10:28;94840.97;;;18.95;nan
4617;BME280;2321;42.704;23.384;2023-04-16T10:12:54;94842.34;;;18.98;nan
4617;BME280;2321;42.704;23.384;2023-04-16T10:15:22;94827.66;;;18.83;nan
4617;BME280;2321;42.704;23.384;2023-04-16T10:17:50;94836.50;;;18.73;nan
4617;BME280;2321;42.704;23.384;2023-04-16T10:20:17;94829.63;;;18.55;nan
4617;BME280;2321;42.704;23.384;2023-04-16T10:22:44;94830.69;;;18.54;nan
4617;BME280;2321;42.704;23.384;2023-04-16T10:25:12;94827.19;;;18.53;nan
4617;BME280;2321;42.704;23.384;2023-04-16T10:27:40;94823.56;;;18.37;nan
4617;BME280;2321;42.704;23.384;2023-04-16T10:30:08;94822.44;;;18.33;nan
4617;BME280;2321;42.704;23.384;2023-04-16T10:32:37;94825.34;;;18.26;nan
4617;BME280;2321;42.704;23.384;2023-04-16T10:35:05;94823.97;;;18.23;nan
4617;BME280;2321;42.704;23.384;2023-04-16T10:37:32;94816.78;;;18.06;nan
4617;BME280;2321;42.704;23.384;2023-04-16T10:39:59;94824.59;;;18.08;nan
4617;BME280;2321;42.704;23.384;2023-04-16T10:42:25;94816.88;;;18.17;nan
4617;BME280;2321;42.704;23.384;2023-04-16T10:44:58;94813.81;;;18.31;nan
4617;BME280;2321;42.704;23.384;2023-04-16T10:47:24;94817.63;;;18.40;nan
4617;BME280;2321;42.704;23.384;2023-04-16T10:49:52;94815.66;;;18.58;nan
4617;BME280;2321;42.704;23.384;2023-04-16T10:52:19;94807.19;;;18.87;nan
4617;BME280;2321;42.704;23.384;2023-04-16T10:54:51;94810.66;;;19.21;nan
4617;BME280;2321;42.704;23.384;2023-04-16T10:57:20;94808.09;;;19.47;nan
4617;BME280;2321;42.704;23.384;2023-04-16T10:59:48;94801.41;;;19.65;nan
4617;BME280;2321;42.704;23.384;2023-04-16T11:02:16;94796.53;;;19.62;nan
4617;BME280;2321;42.704;23.384;2023-04-16T11:04:44;94807.22;;;19.41;nan
4617;BME280;2321;42.704;23.384;2023-04-16T11:07:17;94795.59;;;19.30;nan
4617;BME280;2321;42.704;23.384;2023-04-16T11:09:49;94797.25;;;19.36;nan
4617;BME280;2321;42.704;23.384;2023-04-16T11:12:18;94792.69;;;19.47;nan
4617;BME280;2321;42.704;23.384;2023-04-16T11:14:47;94785.97;;;19.55;nan
4617;BME280;2321;42.704;23.384;2023-04-16T11:17:16;94785.69;;;19.57;nan
4617;BME280;2321;42.704;23.384;2023-04-16T11:19:43;94781.66;;;19.54;nan
4617;BME280;2321;42.704;23.384;2023-04-16T11:22:11;94778.16;;;19.59;nan
4617;BME280;2321;42.704;23.384;2023-04-16T11:24:39;94773.31;;;19.66;nan
4617;BME280;2321;42.704;23.384;2023-04-16T11:27:06;94772.78;;;19.69;nan
4617;BME280;2321;42.704;23.384;2023-04-16T11:29:34;94760.09;;;19.65;nan
4617;BME280;2321;42.704;23.384;2023-04-16T11:32:00;94766.03;;;19.72;nan
4617;BME280;2321;42.704;23.384;2023-04-16T11:34:29;94765.50;;;19.70;nan
4617;BME280;2321;42.704;23.384;2023-04-16T11:36:56;94767.63;;;19.63;nan
4617;BME280;2321;42.704;23.384;2023-04-16T11:39:23;94751.19;;;19.64;nan
4617;BME280;2321;42.704;23.384;2023-04-16T11:41:51;94753.06;;;19.64;nan
4617;BME280;2321;42.704;23.384;2023-04-16T11:44:22;94749.59;;;19.79;nan
4617;BME280;2321;42.704;23.384;2023-04-16T11:46:50;94746.63;;;19.91;nan
4617;BME280;2321;42.704;23.384;2023-04-16T11:49:26;94743.38;;;19.94;nan
4617;BME280;2321;42.704;23.384;2023-04-16T11:51:54;94743.13;;;19.96;nan
4617;BME280;2321;42.704;23.384;2023-04-16T11:54:22;94748.81;;;19.99;nan
4617;BME280;2321;42.704;23.384;2023-04-16T11:56:50;94731.78;;;19.99;nan
4617;BME280;2321;42.704;23.384;2023-04-16T11:59:18;94735.31;;;20.05;nan
4617;BME280;2321;42.704;23.384;2023-04-16T12:01:48;94724.22;;;20.01;nan
4617;BME280;2321;42.704;23.384;2023-04-16T12:04:17;94726.13;;;19.95;nan
4617;BME280;2321;42.704;23.384;2023-04-16T12:07:07;94714.75;;;19.88;nan
4617;BME280;2321;42.704;23.384;2023-04-16T12:09:35;94704.75;;;19.83;nan
4617;BME280;2321;42.704;23.384;2023-04-16T12:12:02;94705.31;;;20.01;nan
4617;BME280;2321;42.704;23.384;2023-04-16T12:14:30;94709.94;;;20.16;nan
4617;BME280;2321;42.704;23.384;2023-04-16T12:17:18;94709.41;;;20.30;nan
4617;BME280;2321;42.704;23.384;2023-04-16T12:19:49;94696.97;;;20.39;nan
4617;BME280;2321;42.704;23.384;2023-04-16T12:22:25;94689.91;;;20.28;nan
4617;BME280;2321;42.704;23.384;2023-04-16T12:24:55;94691.81;;;20.27;nan
4617;BME280;2321;42.704;23.384;2023-04-16T12:27:22;94687.78;;;20.19;nan
4617;BME280;2321;42.704;23.384;2023-04-16T12:30:02;94688.06;;;20.18;nan
4617;BME280;2321;42.704;23.384;2023-04-16T12:32:29;94692.09;;;20.15;nan
4617;BME280;2321;42.704;23.384;2023-04-16T12:34:56;94679.94;;;20.18;nan
4617;BME280;2321;42.704;23.384;2023-04-16T12:37:25;94684.00;;;20.20;nan
4617;BME280;2321;42.704;23.384;2023-04-16T12:39:52;94674.78;;;20.21;nan
4617;BME280;2321;42.704;23.384;2023-04-16T12:42:20;94669.69;;;20.20;nan
4617;BME280;2321;42.704;23.384;2023-04-16T12:44:47;94672.09;;;20.21;nan
4617;BME280;2321;42.704;23.384;2023-04-16T12:47:14;94668.31;;;20.17;nan
4617;BME280;2321;42.704;23.384;2023-04-16T12:49:41;94666.13;;;20.09;nan
4617;BME280;2321;42.704;23.384;2023-04-16T12:52:08;94675.88;;;19.99;nan
4617;BME280;2321;42.704;23.384;2023-04-16T12:54:37;94676.94;;;19.88;nan
4617;BME280;2321;42.704;23.384;2023-04-16T12:57:04;94668.03;;;19.82;nan
4617;BME280;2321;42.704;23.384;2023-04-16T12:59:31;94670.19;;;19.80;nan
4617;BME280;2321;42.704;23.384;2023-04-16T13:01:59;94662.63;;;19.72;nan
4617;BME280;2321;42.704;23.384;2023-04-16T13:04:27;94651.56;;;19.68;nan
4617;BME280;2321;42.704;23.384;2023-04-16T13:06:53;94658.56;;;19.64;nan
4617;BME280;2321;42.704;23.384;2023-04-16T13:09:20;94656.94;;;19.63;nan
4617;BME280;2321;42.704;23.384;2023-04-16T13:11:49;94647.22;;;19.56;nan
4617;BME280;2321;42.704;23.384;2023-04-16T13:14:16;94647.75;;;19.58;nan
4617;BME280;2321;42.704;23.384;2023-04-16T13:16:43;94645.06;;;19.64;nan
4617;BME280;2321;42.704;23.384;2023-04-16T13:19:10;94644.81;;;19.65;nan
4617;BME280;2321;42.704;23.384;2023-04-16T13:21:36;94636.41;;;19.67;nan
4617;BME280;2321;42.704;23.384;2023-04-16T13:24:04;94648.56;;;19.69;nan
4617;BME280;2321;42.704;23.384;2023-04-16T13:26:31;94646.69;;;19.65;nan
4617;BME280;2321;42.704;23.384;2023-04-16T13:28:59;94645.59;;;19.55;nan
4617;BME280;2321;42.704;23.384;2023-04-16T13:31:29;94640.72;;;19.52;nan
4617;BME280;2321;42.704;23.384;2023-04-16T13:33:59;94647.47;;;19.55;nan
4617;BME280;2321;42.704;23.384;2023-04-16T13:36:34;94649.91;;;19.46;nan
4617;BME280;2321;42.704;23.384;2023-04-16T13:39:03;94650.97;;;19.40;nan